WSAP METAR and TAF | Updated Today

WSAP METAR

Paya Lebar Air Base

Observation time: 35 min. ago

WSAP 252000Z 36001KT 9999 FEW016 BKN150 25/23 Q1009

Need help? Read our tutorial on how to read METARs or read the parsed version below.

Paya Lebar Air Base (WSAP) METAR

  • Weather conditions on Wed, 25 May 2022 20:00:00 +0000 (35 min. ago):
  • Present conditions: Dry
  • Clouds: A few at 488 meters; broken sky at 4572 meters
  • Visibility: Greater than 10 km
  • Wind: 360 degrees at 1 knots
  • Temperature: 25 celsius
  • Dew point: 23 celsius
  • Pressure: 1009 millibars
  • Remarks: None


Useful to know...

WSAP TAF

Paya Lebar Air Base

TAF WSAP 251700Z 2518/2700 25007KT 9999 FEW015 SCT020
Observation time: 3:35 hr. ago
Need help? Read our tutorial on how to read TAFs or read the parsed version below.

Parsed version of TAF for Paya Lebar Air Base (WSAP)

  • From 25 May at 18:00 UTC, to day 27 of the month at 00:00 UTC
  • Clouds: A few at 457 meters; scattered at 610 meters
  • Visibility: Greater than 10 km
  • Wind: 250 degrees at 7